createdAt,value
2022-09-16T00:03:01.952Z,11.21
2022-09-16T00:06:04.813Z,11.13
2022-09-16T00:09:07.314Z,11.02
2022-09-16T00:12:09.786Z,11.05
2022-09-16T00:15:13.822Z,11.14
2022-09-16T00:18:16.345Z,11.21
2022-09-16T00:21:18.840Z,11.21
2022-09-16T00:24:21.396Z,11.19
2022-09-16T00:27:24.233Z,11.14
2022-09-16T00:30:28.082Z,11.21
2022-09-16T00:33:30.648Z,11.16
2022-09-16T00:36:33.267Z,11.18
2022-09-16T00:39:35.861Z,11.18
2022-09-16T00:42:40.104Z,11.18
2022-09-16T00:45:47.779Z,11.16
2022-09-16T00:48:51.102Z,11.15
2022-09-16T00:51:57.553Z,11.21
2022-09-16T00:55:05.003Z,11.17
2022-09-16T00:58:14.625Z,11.17
2022-09-16T01:01:18.458Z,11.15
2022-09-16T01:04:25.506Z,11.18
2022-09-16T01:07:32.516Z,11.24
2022-09-16T01:10:35.082Z,11.16
2022-09-16T01:13:38.515Z,11.17
2022-09-16T01:16:48.513Z,11.17
2022-09-16T01:20:11.486Z,11.19
2022-09-16T01:23:45.099Z,11.21
2022-09-16T01:27:19.617Z,11.11
2022-09-16T01:30:40.706Z,11.12
2022-09-16T01:33:56.065Z,11.10
2022-09-16T01:37:08.110Z,11.07
2022-09-16T01:40:13.707Z,11.02
2022-09-16T01:43:21.921Z,11.06
2022-09-16T01:46:34.559Z,11.03
2022-09-16T01:49:45.054Z,11.11
2022-09-16T01:52:55.875Z,11.12
2022-09-16T01:56:01.583Z,11.05
2022-09-16T01:59:08.877Z,10.82
2022-09-16T02:02:18.736Z,10.63
2022-09-16T02:05:27.023Z,10.62
2022-09-16T02:08:34.328Z,10.52
2022-09-16T02:11:38.841Z,10.55
2022-09-16T02:14:44.087Z,10.56
2022-09-16T02:17:52.864Z,10.52
2022-09-16T02:20:59.062Z,10.45
2022-09-16T02:24:06.344Z,10.44
2022-09-16T02:27:14.230Z,10.44
2022-09-16T02:30:19.036Z,10.36
2022-09-16T02:33:25.402Z,10.36
2022-09-16T02:36:30.570Z,10.42
2022-09-16T02:39:37.643Z,10.46
2022-09-16T02:42:40.303Z,10.35
2022-09-16T02:45:51.317Z,10.41
2022-09-16T02:49:10.900Z,10.40
2022-09-16T02:52:19.115Z,10.43
2022-09-16T02:55:30.814Z,10.47
2022-09-16T02:58:33.600Z,10.43
2022-09-16T03:01:43.140Z,10.40
2022-09-16T03:04:47.098Z,10.30
2022-09-16T03:07:49.604Z,10.25
2022-09-16T03:10:54.002Z,10.22
2022-09-16T03:14:10.163Z,10.23
2022-09-16T03:17:27.756Z,10.29
2022-09-16T03:20:42.693Z,10.28
2022-09-16T03:23:54.101Z,10.26
2022-09-16T03:27:02.227Z,10.28
2022-09-16T03:30:07.596Z,10.25
2022-09-16T03:33:20.015Z,10.21
2022-09-16T03:36:30.515Z,10.25
2022-09-16T03:39:34.030Z,10.25
2022-09-16T03:42:39.362Z,10.26
2022-09-16T03:45:42.742Z,10.39
2022-09-16T03:48:45.219Z,10.42
2022-09-16T03:51:49.054Z,10.51
2022-09-16T03:54:51.509Z,10.50
2022-09-16T03:57:54.133Z,10.48
2022-09-16T04:00:56.604Z,10.47
2022-09-16T04:03:59.136Z,10.44
2022-09-16T04:07:02.924Z,10.44
2022-09-16T04:10:06.818Z,10.53
2022-09-16T04:13:09.633Z,10.52
2022-09-16T04:16:12.193Z,10.58
2022-09-16T04:19:15.648Z,10.59
2022-09-16T04:22:19.933Z,10.64
2022-09-16T04:25:22.427Z,10.62
2022-09-16T04:28:25.356Z,10.57
2022-09-16T04:31:27.877Z,10.62
2022-09-16T04:34:32.264Z,10.61
2022-09-16T04:37:36.082Z,10.65
2022-09-16T04:40:39.691Z,10.63
2022-09-16T04:43:42.625Z,10.64
2022-09-16T04:46:45.076Z,10.70
2022-09-16T04:49:47.545Z,10.68
2022-09-16T04:52:51.723Z,10.70
2022-09-16T04:55:54.161Z,10.74
2022-09-16T04:58:59.368Z,10.77
2022-09-16T05:02:02.260Z,10.74
2022-09-16T05:05:05.022Z,10.85
2022-09-16T05:08:08.833Z,10.96
2022-09-16T05:11:13.200Z,11.15
2022-09-16T05:14:17.344Z,11.27
2022-09-16T05:17:39.762Z,11.35
2022-09-16T05:20:42.406Z,11.51
2022-09-16T05:23:47.343Z,11.35
2022-09-16T05:26:50.027Z,11.25
2022-09-16T05:29:52.712Z,11.12
2022-09-16T05:32:55.387Z,11.22
2022-09-16T05:36:05.112Z,11.32
2022-09-16T05:39:22.655Z,11.42
2022-09-16T05:42:25.726Z,11.59
2022-09-16T05:45:32.234Z,11.58
2022-09-16T05:48:36.287Z,11.57
2022-09-16T05:51:41.201Z,11.67
2022-09-16T05:54:45.072Z,11.70
2022-09-16T05:57:47.540Z,11.66
2022-09-16T06:00:50.398Z,11.94
2022-09-16T06:03:54.957Z,12.01
2022-09-16T06:06:57.567Z,11.83
2022-09-16T06:10:01.567Z,11.82
2022-09-16T06:13:04.052Z,11.85
2022-09-16T06:16:08.550Z,11.93
2022-09-16T06:19:13.260Z,11.96
2022-09-16T06:22:15.903Z,12.11
2022-09-16T06:25:19.823Z,12.27
2022-09-16T06:28:22.298Z,12.52
2022-09-16T06:31:26.628Z,12.52
2022-09-16T06:34:29.300Z,12.77
2022-09-16T06:37:31.960Z,13.12
2022-09-16T06:40:35.937Z,13.73
2022-09-16T06:43:39.016Z,13.94
2022-09-16T06:46:41.661Z,13.85
2022-09-16T06:49:44.375Z,13.47
2022-09-16T06:52:51.259Z,13.13
2022-09-16T06:55:55.089Z,13.58
2022-09-16T06:58:57.893Z,13.81
2022-09-16T07:02:00.408Z,13.55
2022-09-16T07:05:03.084Z,13.58
2022-09-16T07:08:05.584Z,14.30
2022-09-16T07:11:12.778Z,15.02
2022-09-16T07:14:15.342Z,14.41
2022-09-16T07:17:17.840Z,14.69
2022-09-16T07:20:20.305Z,14.68
2022-09-16T07:23:22.766Z,14.30
2022-09-16T07:26:28.622Z,13.84
2022-09-16T07:29:31.100Z,13.66
2022-09-16T07:32:33.586Z,14.11
2022-09-16T07:35:36.125Z,14.04
2022-09-16T07:38:38.828Z,14.44
2022-09-16T07:41:44.737Z,14.46
2022-09-16T07:44:47.189Z,14.96
2022-09-16T07:47:50.171Z,15.23
2022-09-16T07:50:57.084Z,15.59
2022-09-16T07:54:00.969Z,15.81
2022-09-16T07:57:04.996Z,16.03
2022-09-16T08:00:09.107Z,15.60
2022-09-16T08:03:11.657Z,16.12
2022-09-16T08:06:16.812Z,15.58
2022-09-16T08:09:39.798Z,15.55
2022-09-16T08:12:43.054Z,15.32
2022-09-16T08:15:45.573Z,15.74
2022-09-16T08:18:52.612Z,15.64
2022-09-16T08:21:55.232Z,15.60
2022-09-16T08:24:57.685Z,16.63
2022-09-16T08:28:01.484Z,17.05
2022-09-16T08:31:04.242Z,16.85
2022-09-16T08:34:07.054Z,17.28
2022-09-16T08:37:09.709Z,17.21
2022-09-16T08:40:16.150Z,17.21
2022-09-16T08:43:28.211Z,17.36
2022-09-16T08:46:35.991Z,17.65
2022-09-16T08:49:44.073Z,17.43
2022-09-16T08:52:49.721Z,16.84
2022-09-16T08:55:53.472Z,17.27
2022-09-16T08:59:01.108Z,17.16
2022-09-16T09:02:28.157Z,17.49
2022-09-16T09:05:40.130Z,17.44
2022-09-16T09:08:52.010Z,17.23
2022-09-16T09:12:03.433Z,17.85
2022-09-16T09:15:28.106Z,17.61
2022-09-16T09:18:44.165Z,16.48
2022-09-16T09:21:57.313Z,16.52
2022-09-16T09:25:22.056Z,16.13
2022-09-16T09:28:48.433Z,16.49
2022-09-16T09:32:01.143Z,16.70
2022-09-16T09:35:21.198Z,16.38
2022-09-16T09:38:44.592Z,15.71
2022-09-16T09:41:50.487Z,15.82
2022-09-16T09:45:01.501Z,16.64
2022-09-16T09:48:15.673Z,17.60
2022-09-16T09:51:25.213Z,17.81
2022-09-16T09:54:31.917Z,16.74
2022-09-16T09:57:40.761Z,16.93
2022-09-16T10:00:43.468Z,18.05
2022-09-16T10:03:49.223Z,19.03
2022-09-16T10:06:55.925Z,18.30
2022-09-16T10:10:03.634Z,18.66
2022-09-16T10:13:10.415Z,17.21
2022-09-16T10:16:17.943Z,18.12
2022-09-16T10:19:23.801Z,17.53
2022-09-16T10:22:29.559Z,16.69
2022-09-16T10:25:34.570Z,17.22
2022-09-16T10:28:37.076Z,17.06
2022-09-16T10:31:41.949Z,16.80
2022-09-16T10:34:47.744Z,17.25
2022-09-16T10:37:54.364Z,17.49
2022-09-16T10:41:01.099Z,17.59
2022-09-16T10:44:08.381Z,16.98
2022-09-16T10:47:18.994Z,17.93
2022-09-16T10:50:23.345Z,18.06
2022-09-16T10:53:31.240Z,17.93
2022-09-16T10:56:35.312Z,19.13
2022-09-16T10:59:37.763Z,18.73
2022-09-16T11:03:05.184Z,19.09
2022-09-16T11:06:22.176Z,18.13
2022-09-16T11:09:33.584Z,17.81
2022-09-16T11:12:58.768Z,18.90
2022-09-16T11:16:14.581Z,19.32
2022-09-16T11:19:22.986Z,19.59
2022-09-16T11:22:36.470Z,19.75
2022-09-16T11:25:49.892Z,19.10
2022-09-16T11:29:03.529Z,19.02
2022-09-16T11:32:15.396Z,18.46
2022-09-16T11:35:34.879Z,18.56
2022-09-16T11:38:46.212Z,18.34
2022-09-16T11:41:56.464Z,18.38
2022-09-16T11:45:10.569Z,17.94
2022-09-16T11:48:32.711Z,18.78
2022-09-16T11:51:51.245Z,18.72
2022-09-16T11:55:15.388Z,17.93
2022-09-16T11:58:27.363Z,17.43
2022-09-16T12:01:36.135Z,17.36
2022-09-16T12:04:45.487Z,17.54
2022-09-16T12:07:55.826Z,17.86
2022-09-16T12:11:04.478Z,17.94
2022-09-16T12:14:14.239Z,18.75
2022-09-16T12:17:21.679Z,18.99
2022-09-16T12:20:29.154Z,19.56
2022-09-16T12:23:35.381Z,20.09
2022-09-16T12:26:43.110Z,19.78
2022-09-16T12:29:53.060Z,19.49
2022-09-16T12:33:01.027Z,18.35
2022-09-16T12:36:07.059Z,17.86
2022-09-16T12:39:12.271Z,18.57
2022-09-16T12:42:42.017Z,18.74
2022-09-16T12:46:12.187Z,18.77
2022-09-16T12:49:30.922Z,17.77
2022-09-16T12:53:09.357Z,16.96
2022-09-16T12:56:19.754Z,16.55
2022-09-16T12:59:53.247Z,15.98
2022-09-16T13:02:59.740Z,15.81
2022-09-16T13:06:14.562Z,16.18
2022-09-16T13:09:23.699Z,16.93
2022-09-16T13:12:39.660Z,17.94
2022-09-16T13:15:45.234Z,18.39
2022-09-16T13:18:51.524Z,18.51
2022-09-16T13:21:58.695Z,18.08
2022-09-16T13:25:12.072Z,18.21
2022-09-16T13:28:27.062Z,18.64
2022-09-16T13:31:34.224Z,19.01
2022-09-16T13:34:36.982Z,18.69
2022-09-16T13:37:39.446Z,18.63
2022-09-16T13:40:54.120Z,18.50
2022-09-16T13:43:56.858Z,18.75
2022-09-16T13:47:30.551Z,18.27
2022-09-16T13:50:33.410Z,17.42
2022-09-16T13:53:42.825Z,14.73
2022-09-16T13:57:00.382Z,12.73
2022-09-16T14:00:15.857Z,12.35
2022-09-16T14:03:35.689Z,12.02
2022-09-16T14:06:54.990Z,12.26
2022-09-16T14:10:02.003Z,12.52
2022-09-16T14:13:12.037Z,12.31
2022-09-16T14:16:18.915Z,12.25
2022-09-16T14:19:27.815Z,12.41
2022-09-16T14:22:31.721Z,12.67
2022-09-16T14:25:36.261Z,13.21
2022-09-16T14:28:39.469Z,13.60
2022-09-16T14:31:45.213Z,14.08
2022-09-16T14:34:52.666Z,14.10
2022-09-16T14:37:58.240Z,14.14
2022-09-16T14:41:00.889Z,14.36
2022-09-16T14:44:10.577Z,14.82
2022-09-16T14:47:29.652Z,15.01
2022-09-16T14:50:39.882Z,14.73
2022-09-16T14:53:55.477Z,14.46
2022-09-16T14:57:07.757Z,14.47
2022-09-16T15:00:16.968Z,15.09
2022-09-16T15:03:24.755Z,15.17
2022-09-16T15:06:32.661Z,15.20
2022-09-16T15:09:44.165Z,15.00
2022-09-16T15:12:49.871Z,14.97
2022-09-16T15:15:57.069Z,14.88
2022-09-16T15:19:04.208Z,14.75
2022-09-16T15:22:11.126Z,14.41
2022-09-16T15:25:21.700Z,14.37
2022-09-16T15:28:24.665Z,14.30
2022-09-16T15:31:29.381Z,14.25
2022-09-16T15:34:32.767Z,14.21
2022-09-16T15:37:36.615Z,14.36
2022-09-16T15:40:40.184Z,14.59
2022-09-16T15:43:47.153Z,14.80
2022-09-16T15:46:50.315Z,14.81
2022-09-16T15:49:56.893Z,14.90
2022-09-16T15:53:03.912Z,14.87
2022-09-16T15:56:10.144Z,14.82
2022-09-16T15:59:25.035Z,14.86
2022-09-16T16:02:34.977Z,14.87
2022-09-16T16:05:39.591Z,14.77
2022-09-16T16:08:47.103Z,14.68
2022-09-16T16:11:50.658Z,14.43
2022-09-16T16:14:53.181Z,14.29
2022-09-16T16:17:59.469Z,14.00
2022-09-16T16:21:06.735Z,13.93
2022-09-16T16:24:10.977Z,13.91
2022-09-16T16:27:13.817Z,13.83
2022-09-16T16:30:16.365Z,13.93
2022-09-16T16:33:18.902Z,13.94
2022-09-16T16:36:22.135Z,14.01
2022-09-16T16:39:25.997Z,14.01
2022-09-16T16:42:28.891Z,13.96
2022-09-16T16:45:32.053Z,13.95
2022-09-16T16:48:35.765Z,13.94
2022-09-16T16:51:38.714Z,13.78
2022-09-16T16:54:43.451Z,13.64
2022-09-16T16:57:46.048Z,13.48
2022-09-16T17:00:49.453Z,13.26
2022-09-16T17:03:52.965Z,13.15
2022-09-16T17:07:21.359Z,13.10
2022-09-16T17:10:19.300Z,13.00
2022-09-16T17:13:21.820Z,12.83
2022-09-16T17:16:25.707Z,12.83
2022-09-16T17:19:28.395Z,12.73
2022-09-16T17:22:30.908Z,12.72
2022-09-16T17:25:35.889Z,12.77
2022-09-16T17:28:39.461Z,12.65
2022-09-16T17:31:42.759Z,12.69
2022-09-16T17:34:45.361Z,12.69
2022-09-16T17:37:47.858Z,12.69
2022-09-16T17:40:51.685Z,12.73
2022-09-16T17:43:54.965Z,12.77
2022-09-16T17:46:57.431Z,12.72
2022-09-16T17:50:03.447Z,12.66
2022-09-16T17:53:05.924Z,12.43
2022-09-16T17:56:12.361Z,12.40
2022-09-16T17:59:18.338Z,12.32
2022-09-16T18:02:22.323Z,12.25
2022-09-16T18:05:29.377Z,12.17
2022-09-16T18:08:32.785Z,12.32
2022-09-16T18:11:37.704Z,12.32
2022-09-16T18:14:40.179Z,12.39
2022-09-16T18:17:42.782Z,12.47
2022-09-16T18:20:45.302Z,12.61
2022-09-16T18:23:49.945Z,12.71
2022-09-16T18:26:53.829Z,12.79
2022-09-16T18:29:57.811Z,12.78
2022-09-16T18:33:00.295Z,12.77
2022-09-16T18:36:05.579Z,12.77
2022-09-16T18:39:11.340Z,12.65
2022-09-16T18:42:15.332Z,12.55
2022-09-16T18:45:18.140Z,12.52
2022-09-16T18:48:20.802Z,12.61
2022-09-16T18:51:25.294Z,12.72
2022-09-16T18:54:29.754Z,12.79
2022-09-16T18:57:33.936Z,12.93
2022-09-16T19:00:36.571Z,13.01
2022-09-16T19:03:39.056Z,13.02
2022-09-16T19:06:43.935Z,13.04
2022-09-16T19:09:46.820Z,12.95
2022-09-16T19:12:50.668Z,12.90
2022-09-16T19:15:56.719Z,12.78
2022-09-16T19:19:00.893Z,12.70
2022-09-16T19:22:05.749Z,12.71
2022-09-16T19:25:08.955Z,12.78
2022-09-16T19:28:13.947Z,12.72
2022-09-16T19:31:16.584Z,12.66
2022-09-16T19:34:19.473Z,12.56
2022-09-16T19:37:22.032Z,12.57
2022-09-16T19:40:24.644Z,12.61
2022-09-16T19:43:28.739Z,12.64
2022-09-16T19:46:36.403Z,12.66
2022-09-16T19:49:38.879Z,12.63
2022-09-16T19:52:41.468Z,12.58
2022-09-16T19:55:43.969Z,12.55
2022-09-16T19:58:48.461Z,12.62
2022-09-16T20:01:51.089Z,12.52
2022-09-16T20:04:53.588Z,12.42
2022-09-16T20:07:56.088Z,12.37
2022-09-16T20:11:03.203Z,12.37
2022-09-16T20:14:08.949Z,12.41
2022-09-16T20:17:11.504Z,12.30
2022-09-16T20:20:14.081Z,12.15
2022-09-16T20:23:16.889Z,12.08
2022-09-16T20:26:20.709Z,11.92
2022-09-16T20:29:24.818Z,11.82
2022-09-16T20:32:27.891Z,11.68
2022-09-16T20:35:30.502Z,11.48
2022-09-16T20:38:34.984Z,11.38
2022-09-16T20:41:39.652Z,11.30
2022-09-16T20:44:47.567Z,11.35
2022-09-16T20:47:52.033Z,11.32
2022-09-16T20:50:54.517Z,11.22
2022-09-16T20:53:58.809Z,11.22
2022-09-16T20:57:01.344Z,11.23
2022-09-16T21:00:07.085Z,11.30
2022-09-16T21:03:12.130Z,11.25
2022-09-16T21:06:15.956Z,11.22
2022-09-16T21:09:19.227Z,11.24
2022-09-16T21:12:22.001Z,11.24
2022-09-16T21:15:25.916Z,11.26
2022-09-16T21:18:28.927Z,11.28
2022-09-16T21:21:32.023Z,11.32
2022-09-16T21:24:34.617Z,11.31
2022-09-16T21:27:38.075Z,11.29
2022-09-16T21:30:41.979Z,11.25
2022-09-16T21:33:45.467Z,11.31
2022-09-16T21:36:48.495Z,11.34
2022-09-16T21:39:51.298Z,11.41
2022-09-16T21:42:53.853Z,11.36
2022-09-16T21:45:58.134Z,11.41
2022-09-16T21:49:02.218Z,11.39
2022-09-16T21:52:05.038Z,11.38
2022-09-16T21:55:08.243Z,11.38
2022-09-16T21:58:10.781Z,11.39
2022-09-16T22:01:17.981Z,11.48
2022-09-16T22:04:23.077Z,11.42
2022-09-16T22:07:28.310Z,11.44
2022-09-16T22:10:31.477Z,11.49
2022-09-16T22:13:35.430Z,11.43
2022-09-16T22:16:40.096Z,11.50
2022-09-16T22:19:42.657Z,11.51
2022-09-16T22:22:45.275Z,11.51
2022-09-16T22:25:48.101Z,11.45
2022-09-16T22:28:51.318Z,11.37
2022-09-16T22:31:55.229Z,11.39
2022-09-16T22:34:57.695Z,11.28
2022-09-16T22:38:00.207Z,11.33
2022-09-16T22:41:03.113Z,11.25
2022-09-16T22:44:05.818Z,11.38
2022-09-16T22:47:09.656Z,11.44
2022-09-16T22:50:12.532Z,11.40
2022-09-16T22:53:15.020Z,11.45
2022-09-16T22:56:21.561Z,11.53
2022-09-16T22:59:24.181Z,11.51
2022-09-16T23:02:29.500Z,11.55
2022-09-16T23:05:32.009Z,11.40
2022-09-16T23:08:36.077Z,11.33
2022-09-16T23:11:38.580Z,11.20
2022-09-16T23:14:42.117Z,11.22
2022-09-16T23:17:45.933Z,11.23
2022-09-16T23:20:57.740Z,11.27
2022-09-16T23:24:03.226Z,11.24
2022-09-16T23:27:05.838Z,11.18
2022-09-16T23:30:09.352Z,11.23
2022-09-16T23:33:13.392Z,11.21
2022-09-16T23:36:18.076Z,11.25
2022-09-16T23:39:20.602Z,11.26
2022-09-16T23:42:23.069Z,11.19
2022-09-16T23:45:25.548Z,11.12
2022-09-16T23:48:29.572Z,11.14
2022-09-16T23:51:32.651Z,11.13
2022-09-16T23:54:35.785Z,11.01
2022-09-16T23:57:38.260Z,11.01
